createdAt,value
2023-03-15T00:00:37.236Z,58.28
2023-03-15T00:05:56.784Z,58.36
2023-03-15T00:11:01.311Z,58.64
2023-03-15T00:16:05.398Z,58.84
2023-03-15T00:21:08.839Z,59.18
2023-03-15T00:26:13.220Z,58.62
2023-03-15T00:31:16.930Z,58.48
2023-03-15T00:36:25.348Z,58.91
2023-03-15T00:41:28.950Z,59.36
2023-03-15T00:46:32.312Z,59.54
2023-03-15T00:51:37.837Z,59.78
2023-03-15T00:56:42.010Z,59.75
2023-03-15T01:01:45.633Z,60.39
2023-03-15T01:06:54.604Z,61.07
2023-03-15T01:11:59.162Z,61.50
2023-03-15T01:17:02.791Z,61.51
2023-03-15T01:22:06.069Z,60.92
2023-03-15T01:27:09.478Z,61.14
2023-03-15T01:32:13.103Z,60.83
2023-03-15T01:37:17.568Z,60.77
2023-03-15T01:42:21.852Z,60.03
2023-03-15T01:47:26.408Z,59.41
2023-03-15T01:52:36.280Z,58.85
2023-03-15T01:57:56.378Z,58.23
2023-03-15T02:03:17.822Z,58.16
2023-03-15T02:08:27.665Z,57.65
2023-03-15T02:13:35.460Z,57.70
2023-03-15T02:18:42.532Z,57.62
2023-03-15T02:23:51.792Z,57.72
2023-03-15T02:28:56.149Z,57.39
2023-03-15T02:33:59.673Z,57.33
2023-03-15T02:39:17.733Z,57.51
2023-03-15T02:44:29.536Z,57.71
2023-03-15T02:49:39.103Z,57.90
2023-03-15T02:54:43.886Z,58.17
2023-03-15T02:59:47.701Z,58.34
2023-03-15T03:04:55.486Z,58.26
2023-03-15T03:10:01.243Z,58.39
2023-03-15T03:15:08.735Z,58.49
2023-03-15T03:20:14.083Z,58.50
2023-03-15T03:25:21.714Z,58.62
2023-03-15T03:30:25.804Z,58.73
2023-03-15T03:35:29.281Z,58.70
2023-03-15T03:40:33.015Z,58.72
2023-03-15T03:45:37.211Z,58.74
2023-03-15T03:50:41.919Z,58.82
2023-03-15T03:55:46.595Z,58.89
2023-03-15T04:00:56.925Z,59.03
2023-03-15T04:06:01.065Z,58.90
2023-03-15T04:11:05.677Z,58.71
2023-03-15T04:16:11.832Z,58.71
2023-03-15T04:21:32.170Z,58.59
2023-03-15T04:26:50.509Z,58.29
2023-03-15T04:32:05.076Z,58.31
2023-03-15T04:37:22.619Z,58.14
2023-03-15T04:42:56.641Z,58.05
2023-03-15T04:48:18.105Z,57.96
2023-03-15T04:53:44.317Z,57.98
2023-03-15T04:59:13.221Z,57.65
2023-03-15T05:04:31.738Z,57.44
2023-03-15T05:09:58.821Z,57.39
2023-03-15T05:15:23.762Z,57.27
2023-03-15T05:20:50.888Z,57.37
2023-03-15T05:26:25.049Z,57.23
2023-03-15T05:31:45.702Z,56.94
2023-03-15T05:37:06.909Z,56.61
2023-03-15T05:42:38.494Z,56.82
2023-03-15T05:47:56.977Z,58.09
2023-03-15T05:53:11.273Z,56.39
2023-03-15T05:58:21.602Z,56.01
2023-03-15T06:03:42.425Z,55.74
2023-03-15T06:08:50.765Z,55.75
2023-03-15T06:13:54.766Z,55.98
2023-03-15T06:19:14.451Z,55.54
2023-03-15T06:24:18.107Z,55.26
2023-03-15T06:29:23.024Z,54.97
2023-03-15T06:34:26.362Z,55.01
2023-03-15T06:39:30.629Z,54.77
2023-03-15T06:44:35.128Z,54.44
2023-03-15T06:49:44.357Z,54.64
2023-03-15T06:54:48.521Z,54.73
2023-03-15T06:59:54.233Z,54.79
2023-03-15T07:04:57.624Z,54.85
2023-03-15T07:10:03.192Z,55.03
2023-03-15T07:15:07.098Z,54.61
2023-03-15T07:20:11.645Z,54.58
2023-03-15T07:25:15.407Z,54.42
2023-03-15T07:30:20.529Z,54.37
2023-03-15T07:35:23.917Z,54.07
2023-03-15T07:40:27.457Z,54.09
2023-03-15T07:45:31.028Z,54.11
2023-03-15T07:50:35.018Z,54.19
2023-03-15T07:55:38.773Z,53.91
2023-03-15T08:00:42.507Z,53.52
2023-03-15T08:05:45.927Z,52.99
2023-03-15T08:10:55.147Z,52.21
2023-03-15T08:15:58.818Z,52.35
2023-03-15T08:21:02.734Z,52.15
2023-03-15T08:26:06.691Z,52.39
2023-03-15T08:31:10.605Z,51.64
2023-03-15T08:36:14.296Z,51.10
2023-03-15T08:41:17.986Z,51.84
2023-03-15T08:46:22.198Z,51.78
2023-03-15T08:51:26.770Z,51.82
2023-03-15T08:56:32.683Z,51.75
2023-03-15T09:01:36.602Z,51.34
2023-03-15T09:06:41.048Z,51.05
2023-03-15T09:11:45.766Z,50.19
2023-03-15T09:16:49.521Z,50.20
2023-03-15T09:21:53.039Z,49.77
2023-03-15T09:26:56.413Z,49.54
2023-03-15T09:32:02.268Z,49.56
2023-03-15T09:37:06.345Z,49.67
2023-03-15T09:42:50.049Z,49.57
2023-03-15T09:48:05.996Z,49.10
2023-03-15T09:53:28.222Z,49.14
2023-03-15T09:58:32.985Z,48.85
2023-03-15T10:03:48.262Z,47.97
2023-03-15T10:08:56.899Z,48.31
2023-03-15T10:14:47.536Z,47.74
2023-03-15T10:19:56.251Z,47.86
2023-03-15T10:25:27.480Z,47.71
2023-03-15T10:30:33.766Z,48.10
2023-03-15T10:35:38.523Z,47.45
2023-03-15T10:40:54.389Z,47.46
2023-03-15T10:46:12.280Z,48.02
2023-03-15T10:51:25.414Z,47.78
2023-03-15T10:56:34.977Z,47.33
2023-03-15T11:01:38.893Z,47.26
2023-03-15T11:06:46.418Z,47.16
2023-03-15T11:11:54.383Z,45.22
2023-03-15T11:17:00.462Z,45.28
2023-03-15T11:22:04.127Z,44.86
2023-03-15T11:27:14.832Z,45.11
2023-03-15T11:32:24.513Z,44.84
2023-03-15T11:37:49.308Z,45.54
2023-03-15T11:43:08.486Z,44.82
2023-03-15T11:48:18.732Z,44.52
2023-03-15T11:53:27.881Z,44.83
2023-03-15T11:58:45.842Z,44.58
2023-03-15T12:03:49.743Z,43.29
2023-03-15T12:08:55.220Z,44.03
2023-03-15T12:13:58.906Z,44.83
2023-03-15T12:19:11.610Z,44.61
2023-03-15T12:24:28.279Z,43.31
2023-03-15T12:29:35.072Z,43.99
2023-03-15T12:35:11.376Z,43.33
2023-03-15T12:40:23.661Z,44.09
2023-03-15T12:45:28.207Z,43.11
2023-03-15T12:50:48.485Z,42.46
2023-03-15T12:55:59.461Z,42.13
2023-03-15T13:01:16.914Z,41.42
2023-03-15T13:06:35.927Z,41.80
2023-03-15T13:12:30.204Z,42.19
2023-03-15T13:17:49.806Z,42.20
2023-03-15T13:23:27.459Z,41.51
2023-03-15T13:28:40.109Z,42.16
2023-03-15T13:33:51.431Z,41.34
2023-03-15T13:38:57.982Z,41.58
2023-03-15T13:44:06.188Z,41.70
2023-03-15T13:49:13.613Z,41.12
2023-03-15T13:54:19.723Z,41.79
2023-03-15T13:59:33.019Z,41.15
2023-03-15T14:04:38.716Z,41.14
2023-03-15T14:09:42.624Z,40.78
2023-03-15T14:14:51.789Z,40.78
2023-03-15T14:20:07.186Z,41.14
2023-03-15T14:25:22.776Z,41.54
2023-03-15T14:30:26.488Z,41.11
2023-03-15T14:35:32.648Z,41.37
2023-03-15T14:40:38.946Z,42.10
2023-03-15T14:45:48.848Z,40.65
2023-03-15T14:50:52.452Z,41.37
2023-03-15T14:55:55.996Z,41.36
2023-03-15T15:01:00.014Z,41.12
2023-03-15T15:06:05.169Z,41.58
2023-03-15T15:17:20.275Z,41.65
2023-03-15T15:22:24.033Z,41.68
2023-03-15T15:27:27.498Z,41.84
2023-03-15T15:32:34.275Z,42.14
2023-03-15T15:37:37.977Z,41.78
2023-03-15T15:42:41.649Z,41.72
2023-03-15T15:47:45.762Z,41.68
2023-03-15T15:52:52.176Z,41.56
2023-03-15T15:57:56.277Z,41.77
2023-03-15T16:02:59.883Z,42.24
2023-03-15T16:08:05.299Z,42.15
2023-03-15T16:13:11.848Z,42.24
2023-03-15T16:18:15.400Z,42.34
2023-03-15T16:23:23.002Z,42.36
2023-03-15T16:28:26.756Z,42.77
2023-03-15T16:33:30.354Z,42.85
2023-03-15T16:38:33.989Z,42.84
2023-03-15T16:43:37.418Z,42.88
2023-03-15T16:55:06.170Z,43.03
2023-03-15T17:00:16.998Z,43.07
2023-03-15T17:05:21.176Z,42.98
2023-03-15T17:10:29.488Z,43.05
2023-03-15T17:15:32.740Z,43.05
2023-03-15T17:20:36.139Z,43.26
2023-03-15T17:25:39.396Z,43.27
2023-03-15T17:30:42.832Z,43.55
2023-03-15T17:35:54.288Z,43.51
2023-03-15T17:40:57.717Z,43.73
2023-03-15T17:46:01.121Z,43.84
2023-03-15T17:51:06.162Z,43.97
2023-03-15T17:56:09.918Z,43.98
2023-03-15T18:01:20.188Z,44.10
2023-03-15T18:06:30.061Z,44.13
2023-03-15T18:11:40.531Z,44.76
2023-03-15T18:16:48.542Z,44.43
2023-03-15T18:21:52.229Z,44.34
2023-03-15T18:26:55.918Z,44.66
2023-03-15T18:31:59.268Z,44.83
2023-03-15T18:37:02.736Z,44.68
2023-03-15T18:42:06.341Z,44.88
2023-03-15T18:47:10.071Z,44.93
2023-03-15T18:52:16.142Z,44.95
2023-03-15T18:57:20.816Z,45.21
2023-03-15T19:02:24.364Z,45.59
2023-03-15T19:07:28.589Z,45.52
2023-03-15T19:12:32.119Z,45.36
2023-03-15T19:17:35.457Z,45.28
2023-03-15T19:22:39.705Z,45.29
2023-03-15T19:27:43.885Z,45.26
2023-03-15T19:32:48.296Z,45.28
2023-03-15T19:37:52.148Z,45.26
2023-03-15T19:42:55.756Z,45.39
2023-03-15T19:47:58.930Z,46.03
2023-03-15T19:53:02.312Z,45.88
2023-03-15T19:58:06.517Z,45.81
2023-03-15T20:03:10.058Z,45.85
2023-03-15T20:08:13.514Z,45.91
2023-03-15T20:13:16.978Z,45.98
2023-03-15T20:18:20.143Z,46.08
2023-03-15T20:23:23.578Z,46.21
2023-03-15T20:28:27.192Z,46.30
2023-03-15T20:33:31.498Z,46.46
2023-03-15T20:38:37.401Z,46.59
2023-03-15T20:43:40.975Z,46.75
2023-03-15T20:48:44.126Z,46.62
2023-03-15T20:53:48.231Z,46.87
2023-03-15T20:58:52.116Z,47.11
2023-03-15T21:03:56.551Z,47.30
2023-03-15T21:09:00.401Z,47.54
2023-03-15T21:14:03.887Z,47.64
2023-03-15T21:19:07.235Z,47.78
2023-03-15T21:24:12.706Z,47.86
2023-03-15T21:29:16.042Z,47.97
2023-03-15T21:34:19.388Z,48.30
2023-03-15T21:39:22.794Z,48.54
2023-03-15T21:44:25.922Z,48.65
2023-03-15T21:49:29.438Z,48.80
2023-03-15T21:54:32.611Z,48.96
2023-03-15T21:59:35.778Z,49.14
2023-03-15T22:04:39.183Z,49.30
2023-03-15T22:09:43.540Z,49.45
2023-03-15T22:14:51.724Z,49.48
2023-03-15T22:20:00.155Z,49.47
2023-03-15T22:25:03.615Z,49.48
2023-03-15T22:30:08.692Z,49.51
2023-03-15T22:35:13.883Z,49.51
2023-03-15T22:40:17.361Z,49.64
2023-03-15T22:45:21.463Z,49.73
2023-03-15T22:50:24.887Z,49.89
2023-03-15T22:55:28.245Z,50.00
2023-03-15T23:00:31.511Z,50.14
2023-03-15T23:05:35.938Z,50.28
2023-03-15T23:10:43.673Z,50.23
2023-03-15T23:15:47.441Z,50.48
2023-03-15T23:20:51.048Z,50.23
2023-03-15T23:25:54.500Z,50.16
2023-03-15T23:31:05.424Z,50.16
2023-03-15T23:36:09.116Z,50.19
2023-03-15T23:41:12.768Z,50.29
2023-03-15T23:46:16.055Z,50.35
2023-03-15T23:51:19.803Z,50.35
2023-03-15T23:56:24.016Z,50.37
